Beeston, United Kingdom
Current Conditions -  °F | °C
As of 12:50 AM on Sunday 23 Nov 2014 (Local Time) from EGNX Reporting Station
Scattered Clouds Scattered Clouds  
Wind Chill: 46°   Ceiling: Unl
Heat Index: 48°   Visibility: 6mi
Dew Point: 46°   Wind: 6mph
Humidity: 93%   Direction: 260°W
Pressure: 30"   Gusts: NA
Location:  52.93°N, 1.21°W
Report Text: EGNX 230050Z 26005KT 9999 SCT039 09/08 Q1016
Loading
Personal Weather Stations






























Interactive Weather Map New forecast layout! Learn more

10-Day Weather Forecast

Advertisements
Track Severe Weather on mobile